sensor_id;sensor_type;location;lat;lon;timestamp;pressure;altitude;pressure_sealevel;temperature;humidity
82222;BME280;71818;52.352;10.912;2023-08-17T00:00:41;100670.84;;;17.63;75.70
82222;BME280;71818;52.352;10.912;2023-08-17T00:03:06;100672.88;;;17.52;76.46
82222;BME280;71818;52.352;10.912;2023-08-17T00:05:32;100676.28;;;17.44;77.50
82222;BME280;71818;52.352;10.912;2023-08-17T00:08:00;100670.28;;;17.32;79.02
82222;BME280;71818;52.352;10.912;2023-08-17T00:10:26;100683.03;;;17.21;81.06
82222;BME280;71818;52.352;10.912;2023-08-17T00:12:51;100676.63;;;17.04;82.51
82222;BME280;71818;52.352;10.912;2023-08-17T00:15:17;100669.59;;;16.84;84.60
82222;BME280;71818;52.352;10.912;2023-08-17T00:17:42;100666.25;;;16.72;85.57
82222;BME280;71818;52.352;10.912;2023-08-17T00:20:08;100674.81;;;16.66;87.16
82222;BME280;71818;52.352;10.912;2023-08-17T00:22:35;100665.81;;;16.67;87.05
82222;BME280;71818;52.352;10.912;2023-08-17T00:25:01;100667.91;;;16.54;88.02
82222;BME280;71818;52.352;10.912;2023-08-17T00:27:28;100665.13;;;16.46;89.43
82222;BME280;71818;52.352;10.912;2023-08-17T00:29:53;100665.41;;;16.33;90.92
82222;BME280;71818;52.352;10.912;2023-08-17T00:32:19;100668.81;;;16.25;91.81
82222;BME280;71818;52.352;10.912;2023-08-17T00:34:47;100655.41;;;16.06;92.64
82222;BME280;71818;52.352;10.912;2023-08-17T00:37:18;100646.69;;;15.94;93.75
82222;BME280;71818;52.352;10.912;2023-08-17T00:39:47;100647.22;;;15.88;94.55
82222;BME280;71818;52.352;10.912;2023-08-17T00:45:51;100645.69;;;15.95;96.09
82222;BME280;71818;52.352;10.912;2023-08-17T00:48:22;100645.69;;;15.95;96.59
82222;BME280;71818;52.352;10.912;2023-08-17T00:51:28;100639.06;;;15.99;96.67
82222;BME280;71818;52.352;10.912;2023-08-17T00:54:24;100633.13;;;16.05;96.94
82222;BME280;71818;52.352;10.912;2023-08-17T00:56:56;100632.88;;;16.08;97.09
82222;BME280;71818;52.352;10.912;2023-08-17T00:59:24;100636.94;;;16.12;96.93
82222;BME280;71818;52.352;10.912;2023-08-17T01:01:58;100640.88;;;16.18;97.20
82222;BME280;71818;52.352;10.912;2023-08-17T01:04:24;100634.66;;;16.08;97.68
82222;BME280;71818;52.352;10.912;2023-08-17T01:06:49;100648.06;;;16.08;97.80
82222;BME280;71818;52.352;10.912;2023-08-17T01:09:17;100653.03;;;16.12;97.99
82222;BME280;71818;52.352;10.912;2023-08-17T01:15:28;100630.75;;;16.12;98.46
82222;BME280;71818;52.352;10.912;2023-08-17T01:18:29;100634.28;;;16.12;98.72
82222;BME280;71818;52.352;10.912;2023-08-17T01:20:56;100635.53;;;16.18;98.99
82222;BME280;71818;52.352;10.912;2023-08-17T01:23:22;100633.00;;;16.17;99.13
82222;BME280;71818;52.352;10.912;2023-08-17T01:25:55;100625.22;;;16.23;99.26
82222;BME280;71818;52.352;10.912;2023-08-17T01:28:22;100623.41;;;16.24;99.37
82222;BME280;71818;52.352;10.912;2023-08-17T01:31:12;100617.06;;;16.25;99.58
82222;BME280;71818;52.352;10.912;2023-08-17T01:34:07;100621.00;;;16.30;99.56
82222;BME280;71818;52.352;10.912;2023-08-17T01:36:52;100622.94;;;16.38;99.62
82222;BME280;71818;52.352;10.912;2023-08-17T01:39:59;100625.38;;;16.41;99.80
82222;BME280;71818;52.352;10.912;2023-08-17T01:42:28;100620.69;;;16.43;99.95
82222;BME280;71818;52.352;10.912;2023-08-17T01:45:16;100607.00;;;16.46;99.90
82222;BME280;71818;52.352;10.912;2023-08-17T01:48:17;100612.78;;;16.51;100.00
82222;BME280;71818;52.352;10.912;2023-08-17T01:54:53;100609.38;;;16.59;100.00
82222;BME280;71818;52.352;10.912;2023-08-17T01:57:34;100604.28;;;16.65;100.00
82222;BME280;71818;52.352;10.912;2023-08-17T02:02:28;100599.78;;;16.76;100.00
82222;BME280;71818;52.352;10.912;2023-08-17T02:04:53;100608.06;;;16.82;100.00
82222;BME280;71818;52.352;10.912;2023-08-17T02:07:19;100610.59;;;16.84;100.00
82222;BME280;71818;52.352;10.912;2023-08-17T02:09:44;100622.28;;;16.92;100.00
82222;BME280;71818;52.352;10.912;2023-08-17T02:12:09;100626.34;;;16.96;100.00
82222;BME280;71818;52.352;10.912;2023-08-17T02:14:35;100631.41;;;16.99;100.00
82222;BME280;71818;52.352;10.912;2023-08-17T02:17:00;100635.69;;;17.02;100.00
82222;BME280;71818;52.352;10.912;2023-08-17T02:19:25;100642.44;;;17.06;100.00
82222;BME280;71818;52.352;10.912;2023-08-17T02:21:51;100656.25;;;17.11;100.00
82222;BME280;71818;52.352;10.912;2023-08-17T02:24:16;100678.00;;;17.08;100.00
82222;BME280;71818;52.352;10.912;2023-08-17T02:26:42;100698.50;;;16.99;100.00
82222;BME280;71818;52.352;10.912;2023-08-17T02:29:07;100700.81;;;16.85;100.00
82222;BME280;71818;52.352;10.912;2023-08-17T02:31:32;100703.75;;;16.82;100.00
82222;BME280;71818;52.352;10.912;2023-08-17T02:33:58;100700.38;;;16.80;100.00
82222;BME280;71818;52.352;10.912;2023-08-17T02:36:28;100700.66;;;16.77;100.00
82222;BME280;71818;52.352;10.912;2023-08-17T02:38:55;100690.50;;;16.80;100.00
82222;BME280;71818;52.352;10.912;2023-08-17T02:41:20;100683.28;;;16.81;100.00
82222;BME280;71818;52.352;10.912;2023-08-17T02:43:45;100681.59;;;16.80;100.00
82222;BME280;71818;52.352;10.912;2023-08-17T02:46:11;100679.06;;;16.78;100.00
82222;BME280;71818;52.352;10.912;2023-08-17T02:48:36;100669.19;;;16.79;100.00
82222;BME280;71818;52.352;10.912;2023-08-17T02:51:02;100666.50;;;16.79;100.00
82222;BME280;71818;52.352;10.912;2023-08-17T02:53:27;100651.97;;;16.81;100.00
82222;BME280;71818;52.352;10.912;2023-08-17T02:55:52;100640.13;;;16.74;100.00
82222;BME280;71818;52.352;10.912;2023-08-17T02:58:18;100643.75;;;16.83;100.00
82222;BME280;71818;52.352;10.912;2023-08-17T03:00:44;100643.06;;;16.81;100.00
82222;BME280;71818;52.352;10.912;2023-08-17T03:03:09;100648.13;;;16.84;100.00
82222;BME280;71818;52.352;10.912;2023-08-17T03:05:34;100634.72;;;16.84;100.00
82222;BME280;71818;52.352;10.912;2023-08-17T03:08:00;100642.22;;;16.90;100.00
82222;BME280;71818;52.352;10.912;2023-08-17T03:10:25;100640.94;;;16.84;100.00
82222;BME280;71818;52.352;10.912;2023-08-17T03:12:51;100632.03;;;16.84;100.00
82222;BME280;71818;52.352;10.912;2023-08-17T03:15:16;100638.00;;;16.87;100.00
82222;BME280;71818;52.352;10.912;2023-08-17T03:17:41;100634.31;;;16.88;100.00
82222;BME280;71818;52.352;10.912;2023-08-17T03:20:07;100631.19;;;16.83;100.00
82222;BME280;71818;52.352;10.912;2023-08-17T03:22:34;100627.69;;;16.83;100.00
82222;BME280;71818;52.352;10.912;2023-08-17T03:24:59;100623.31;;;16.82;100.00
82222;BME280;71818;52.352;10.912;2023-08-17T03:27:24;100620.47;;;16.83;100.00
82222;BME280;71818;52.352;10.912;2023-08-17T03:29:50;100616.78;;;16.84;100.00
82222;BME280;71818;52.352;10.912;2023-08-17T03:32:16;100625.56;;;16.86;100.00
82222;BME280;71818;52.352;10.912;2023-08-17T03:34:41;100628.09;;;16.88;100.00
82222;BME280;71818;52.352;10.912;2023-08-17T03:37:07;100625.41;;;16.88;100.00
82222;BME280;71818;52.352;10.912;2023-08-17T03:39:32;100620.91;;;16.88;100.00
82222;BME280;71818;52.352;10.912;2023-08-17T03:41:57;100624.00;;;16.84;100.00
82222;BME280;71818;52.352;10.912;2023-08-17T03:44:23;100610.88;;;16.81;100.00
82222;BME280;71818;52.352;10.912;2023-08-17T03:46:48;100615.25;;;16.82;100.00
82222;BME280;71818;52.352;10.912;2023-08-17T03:49:13;100619.38;;;16.86;100.00
82222;BME280;71818;52.352;10.912;2023-08-17T03:51:39;100617.22;;;16.89;100.00
82222;BME280;71818;52.352;10.912;2023-08-17T03:54:05;100606.22;;;16.83;100.00
82222;BME280;71818;52.352;10.912;2023-08-17T03:56:30;100599.03;;;16.83;100.00
82222;BME280;71818;52.352;10.912;2023-08-17T03:58:55;100588.88;;;16.87;100.00
82222;BME280;71818;52.352;10.912;2023-08-17T04:01:21;100588.28;;;16.83;100.00
82222;BME280;71818;52.352;10.912;2023-08-17T04:03:46;100588.34;;;16.73;100.00
82222;BME280;71818;52.352;10.912;2023-08-17T04:06:12;100579.28;;;16.65;100.00
82222;BME280;71818;52.352;10.912;2023-08-17T04:08:37;100581.28;;;16.63;100.00
82222;BME280;71818;52.352;10.912;2023-08-17T04:11:03;100590.31;;;16.62;100.00
82222;BME280;71818;52.352;10.912;2023-08-17T04:13:29;100597.22;;;16.64;100.00
82222;BME280;71818;52.352;10.912;2023-08-17T04:15:54;100601.88;;;16.62;100.00
82222;BME280;71818;52.352;10.912;2023-08-17T04:18:20;100595.00;;;16.69;100.00
82222;BME280;71818;52.352;10.912;2023-08-17T04:20:45;100591.16;;;16.62;100.00
82222;BME280;71818;52.352;10.912;2023-08-17T04:23:10;100589.47;;;16.61;100.00
82222;BME280;71818;52.352;10.912;2023-08-17T04:25:36;100595.81;;;16.60;100.00
82222;BME280;71818;52.352;10.912;2023-08-17T04:28:01;100597.66;;;16.60;100.00
82222;BME280;71818;52.352;10.912;2023-08-17T04:30:27;100587.63;;;16.62;100.00
82222;BME280;71818;52.352;10.912;2023-08-17T04:32:52;100584.38;;;16.68;100.00
82222;BME280;71818;52.352;10.912;2023-08-17T04:35:18;100587.06;;;16.68;100.00
82222;BME280;71818;52.352;10.912;2023-08-17T04:37:44;100591.59;;;16.67;100.00
82222;BME280;71818;52.352;10.912;2023-08-17T04:40:09;100595.69;;;16.62;100.00
82222;BME280;71818;52.352;10.912;2023-08-17T04:42:35;100597.53;;;16.61;100.00
82222;BME280;71818;52.352;10.912;2023-08-17T04:45:01;100597.91;;;16.66;100.00
82222;BME280;71818;52.352;10.912;2023-08-17T04:47:27;100604.41;;;16.64;100.00
82222;BME280;71818;52.352;10.912;2023-08-17T04:49:53;100599.22;;;16.62;100.00
82222;BME280;71818;52.352;10.912;2023-08-17T04:52:18;100596.53;;;16.62;100.00
82222;BME280;71818;52.352;10.912;2023-08-17T04:54:43;100590.47;;;16.60;100.00
82222;BME280;71818;52.352;10.912;2023-08-17T04:57:09;100577.34;;;16.57;100.00
82222;BME280;71818;52.352;10.912;2023-08-17T04:59:35;100583.56;;;16.58;100.00
82222;BME280;71818;52.352;10.912;2023-08-17T05:02:01;100578.06;;;16.59;100.00
82222;BME280;71818;52.352;10.912;2023-08-17T05:04:26;100581.72;;;16.58;100.00
82222;BME280;71818;52.352;10.912;2023-08-17T05:06:51;100587.94;;;16.59;100.00
82222;BME280;71818;52.352;10.912;2023-08-17T05:09:17;100581.72;;;16.58;100.00
82222;BME280;71818;52.352;10.912;2023-08-17T05:11:42;100587.38;;;16.55;100.00
82222;BME280;71818;52.352;10.912;2023-08-17T05:14:07;100577.06;;;16.60;100.00
82222;BME280;71818;52.352;10.912;2023-08-17T05:16:33;100577.06;;;16.60;100.00
82222;BME280;71818;52.352;10.912;2023-08-17T05:18:58;100577.66;;;16.54;100.00
82222;BME280;71818;52.352;10.912;2023-08-17T05:21:25;100581.72;;;16.58;100.00
82222;BME280;71818;52.352;10.912;2023-08-17T05:23:50;100583.13;;;16.62;100.00
82222;BME280;71818;52.352;10.912;2023-08-17T05:26:16;100583.81;;;16.64;100.00
82222;BME280;71818;52.352;10.912;2023-08-17T05:28:42;100593.00;;;16.62;100.00
82222;BME280;71818;52.352;10.912;2023-08-17T05:31:08;100596.53;;;16.62;100.00
82222;BME280;71818;52.352;10.912;2023-08-17T05:33:34;100600.34;;;16.60;100.00
82222;BME280;71818;52.352;10.912;2023-08-17T05:35:59;100612.47;;;16.64;100.00
82222;BME280;71818;52.352;10.912;2023-08-17T05:38:25;100617.41;;;16.68;100.00
82222;BME280;71818;52.352;10.912;2023-08-17T05:40:57;100616.31;;;16.71;100.00
82222;BME280;71818;52.352;10.912;2023-08-17T05:43:23;100619.69;;;16.73;100.00
82222;BME280;71818;52.352;10.912;2023-08-17T05:45:49;100617.41;;;16.68;100.00
82222;BME280;71818;52.352;10.912;2023-08-17T05:48:18;100616.69;;;16.66;100.00
82222;BME280;71818;52.352;10.912;2023-08-17T05:50:44;100620.50;;;16.64;100.00
82222;BME280;71818;52.352;10.912;2023-08-17T05:53:09;100622.50;;;16.71;100.00
82222;BME280;71818;52.352;10.912;2023-08-17T05:55:35;100623.63;;;16.59;100.00
82222;BME280;71818;52.352;10.912;2023-08-17T05:58:01;100617.00;;;16.73;100.00
82222;BME280;71818;52.352;10.912;2023-08-17T06:00:26;100623.03;;;16.65;100.00
82222;BME280;71818;52.352;10.912;2023-08-17T06:02:51;100615.28;;;16.62;100.00
82222;BME280;71818;52.352;10.912;2023-08-17T06:05:17;100614.31;;;16.63;100.00
82222;BME280;71818;52.352;10.912;2023-08-17T06:07:42;100610.78;;;16.63;100.00
82222;BME280;71818;52.352;10.912;2023-08-17T06:10:09;100620.34;;;16.65;100.00
82222;BME280;71818;52.352;10.912;2023-08-17T06:12:34;100619.66;;;16.63;100.00
82222;BME280;71818;52.352;10.912;2023-08-17T06:15:01;100621.34;;;16.64;100.00
82222;BME280;71818;52.352;10.912;2023-08-17T06:17:27;100621.50;;;16.63;100.00
82222;BME280;71818;52.352;10.912;2023-08-17T06:19:53;100619.81;;;16.62;100.00
82222;BME280;71818;52.352;10.912;2023-08-17T06:22:18;100621.94;;;16.58;100.00
82222;BME280;71818;52.352;10.912;2023-08-17T06:24:43;100615.59;;;16.59;100.00
82222;BME280;71818;52.352;10.912;2023-08-17T06:27:09;100625.59;;;16.67;100.00
82222;BME280;71818;52.352;10.912;2023-08-17T06:29:34;100628.88;;;16.70;100.00
82222;BME280;71818;52.352;10.912;2023-08-17T06:31:59;100627.44;;;16.76;100.00
82222;BME280;71818;52.352;10.912;2023-08-17T06:34:25;100630.56;;;16.71;100.00
82222;BME280;71818;52.352;10.912;2023-08-17T06:36:58;100628.41;;;16.75;100.00
82222;BME280;71818;52.352;10.912;2023-08-17T06:39:24;100635.63;;;16.75;100.00
82222;BME280;71818;52.352;10.912;2023-08-17T06:41:49;100630.56;;;16.71;100.00
82222;BME280;71818;52.352;10.912;2023-08-17T06:44:15;100634.63;;;16.76;100.00
82222;BME280;71818;52.352;10.912;2023-08-17T06:46:40;100623.19;;;16.73;100.00
82222;BME280;71818;52.352;10.912;2023-08-17T06:49:06;100618.00;;;16.72;100.00
82222;BME280;71818;52.352;10.912;2023-08-17T06:51:31;100616.00;;;16.74;100.00
82222;BME280;71818;52.352;10.912;2023-08-17T06:53:56;100624.06;;;16.74;100.00
82222;BME280;71818;52.352;10.912;2023-08-17T06:56:22;100629.13;;;16.77;100.00
82222;BME280;71818;52.352;10.912;2023-08-17T06:58:48;100630.66;;;16.80;100.00
82222;BME280;71818;52.352;10.912;2023-08-17T07:01:13;100637.16;;;16.77;100.00
82222;BME280;71818;52.352;10.912;2023-08-17T07:03:39;100636.31;;;16.77;100.00
82222;BME280;71818;52.352;10.912;2023-08-17T07:06:05;100641.94;;;16.83;100.00
82222;BME280;71818;52.352;10.912;2023-08-17T07:08:30;100643.50;;;16.86;100.00
82222;BME280;71818;52.352;10.912;2023-08-17T07:10:55;100644.66;;;16.73;100.00
82222;BME280;71818;52.352;10.912;2023-08-17T07:13:21;100636.47;;;16.75;100.00
82222;BME280;71818;52.352;10.912;2023-08-17T07:15:46;100642.28;;;16.70;100.00
82222;BME280;71818;52.352;10.912;2023-08-17T07:18:12;100642.97;;;16.72;100.00
82222;BME280;71818;52.352;10.912;2023-08-17T07:20:37;100649.44;;;16.80;100.00
82222;BME280;71818;52.352;10.912;2023-08-17T07:23:02;100651.84;;;16.73;100.00
82222;BME280;71818;52.352;10.912;2023-08-17T07:25:28;100645.66;;;16.72;100.00
82222;BME280;71818;52.352;10.912;2023-08-17T07:27:53;100657.78;;;16.67;100.00
82222;BME280;71818;52.352;10.912;2023-08-17T07:30:19;100653.69;;;16.72;100.00
82222;BME280;71818;52.352;10.912;2023-08-17T07:32:44;100665.81;;;16.77;100.00
82222;BME280;71818;52.352;10.912;2023-08-17T07:35:10;100664.41;;;16.72;100.00
82222;BME280;71818;52.352;10.912;2023-08-17T07:37:35;100662.59;;;16.73;100.00
82222;BME280;71818;52.352;10.912;2023-08-17T07:40:10;100656.06;;;16.66;100.00
82222;BME280;71818;52.352;10.912;2023-08-17T07:42:38;100656.34;;;16.63;100.00
82222;BME280;71818;52.352;10.912;2023-08-17T07:45:04;100666.50;;;16.79;100.00
82222;BME280;71818;52.352;10.912;2023-08-17T07:47:31;100661.16;;;16.69;100.00
82222;BME280;71818;52.352;10.912;2023-08-17T07:49:57;100665.94;;;16.65;100.00
82222;BME280;71818;52.352;10.912;2023-08-17T07:52:23;100659.47;;;16.68;100.00
82222;BME280;71818;52.352;10.912;2023-08-17T07:54:48;100656.91;;;16.66;100.00
82222;BME280;71818;52.352;10.912;2023-08-17T07:57:14;100651.44;;;16.58;100.00
82222;BME280;71818;52.352;10.912;2023-08-17T07:59:39;100656.06;;;16.66;100.00
82222;BME280;71818;52.352;10.912;2023-08-17T08:02:04;100659.47;;;16.68;100.00
82222;BME280;71818;52.352;10.912;2023-08-17T08:04:30;100658.06;;;16.73;100.00
82222;BME280;71818;52.352;10.912;2023-08-17T08:06:55;100649.16;;;16.63;100.00
82222;BME280;71818;52.352;10.912;2023-08-17T08:09:20;100651.13;;;16.61;100.00
82222;BME280;71818;52.352;10.912;2023-08-17T08:11:46;100648.31;;;16.63;100.00
82222;BME280;71818;52.352;10.912;2023-08-17T08:14:12;100653.97;;;16.60;100.00
82222;BME280;71818;52.352;10.912;2023-08-17T08:16:37;100653.69;;;16.53;100.00
82222;BME280;71818;52.352;10.912;2023-08-17T08:19:02;100652.13;;;16.51;100.00
82222;BME280;71818;52.352;10.912;2023-08-17T08:21:28;100655.00;;;16.39;100.00
82222;BME280;71818;52.352;10.912;2023-08-17T08:23:53;100654.56;;;16.34;100.00
82222;BME280;71818;52.352;10.912;2023-08-17T08:26:19;100653.72;;;16.43;100.00
82222;BME280;71818;52.352;10.912;2023-08-17T08:28:44;100664.56;;;16.32;100.00
82222;BME280;71818;52.352;10.912;2023-08-17T08:31:10;100660.91;;;16.33;100.00
82222;BME280;71818;52.352;10.912;2023-08-17T08:33:35;100664.56;;;16.32;100.00
82222;BME280;71818;52.352;10.912;2023-08-17T08:36:00;100666.69;;;16.29;100.00
82222;BME280;71818;52.352;10.912;2023-08-17T08:38:26;100661.19;;;16.30;100.00
82222;BME280;71818;52.352;10.912;2023-08-17T08:40:52;100666.28;;;16.24;100.00
82222;BME280;71818;52.352;10.912;2023-08-17T08:43:18;100674.16;;;16.16;100.00
82222;BME280;71818;52.352;10.912;2023-08-17T08:45:43;100668.53;;;16.19;100.00
82222;BME280;71818;52.352;10.912;2023-08-17T08:48:13;100661.47;;;16.08;100.00
82222;BME280;71818;52.352;10.912;2023-08-17T08:50:40;100658.50;;;16.01;100.00
82222;BME280;71818;52.352;10.912;2023-08-17T08:53:14;100664.28;;;16.16;100.00
82222;BME280;71818;52.352;10.912;2023-08-17T08:55:47;100666.28;;;16.14;100.00
82222;BME280;71818;52.352;10.912;2023-08-17T08:58:15;100659.22;;;16.13;100.00
82222;BME280;71818;52.352;10.912;2023-08-17T09:00:41;100658.38;;;16.12;100.00
82222;BME280;71818;52.352;10.912;2023-08-17T09:03:06;100660.06;;;16.04;100.00
82222;BME280;71818;52.352;10.912;2023-08-17T09:05:33;100661.44;;;15.89;100.00
82222;BME280;71818;52.352;10.912;2023-08-17T09:08:00;100665.38;;;15.75;99.67
82222;BME280;71818;52.352;10.912;2023-08-17T09:10:25;100672.97;;;15.70;99.81
82222;BME280;71818;52.352;10.912;2023-08-17T09:12:51;100669.75;;;15.66;99.42
82222;BME280;71818;52.352;10.912;2023-08-17T09:15:16;100665.22;;;15.67;99.51
82222;BME280;71818;52.352;10.912;2023-08-17T09:17:42;100666.63;;;15.71;99.29
82222;BME280;71818;52.352;10.912;2023-08-17T09:20:09;100666.66;;;15.90;99.44
82222;BME280;71818;52.352;10.912;2023-08-17T09:22:42;100663.59;;;15.95;98.85
82222;BME280;71818;52.352;10.912;2023-08-17T09:25:09;100663.13;;;15.90;98.76
82222;BME280;71818;52.352;10.912;2023-08-17T09:27:36;100670.03;;;15.92;98.35
82222;BME280;71818;52.352;10.912;2023-08-17T09:30:06;100666.13;;;16.06;98.36
82222;BME280;71818;52.352;10.912;2023-08-17T09:32:33;100670.78;;;15.94;98.33
82222;BME280;71818;52.352;10.912;2023-08-17T09:35:02;100668.53;;;15.99;97.99
82222;BME280;71818;52.352;10.912;2023-08-17T09:37:28;100682.59;;;15.92;98.13
82222;BME280;71818;52.352;10.912;2023-08-17T09:39:55;100675.53;;;15.91;98.31
82222;BME280;71818;52.352;10.912;2023-08-17T09:42:21;100675.25;;;15.84;98.30
82222;BME280;71818;52.352;10.912;2023-08-17T09:44:48;100676.66;;;15.69;97.95
82222;BME280;71818;52.352;10.912;2023-08-17T09:47:14;100677.91;;;15.65;98.21
82222;BME280;71818;52.352;10.912;2023-08-17T09:49:39;100675.16;;;15.55;98.18
82222;BME280;71818;52.352;10.912;2023-08-17T09:52:04;100675.16;;;15.55;98.22
82222;BME280;71818;52.352;10.912;2023-08-17T09:54:31;100671.94;;;15.51;98.19
82222;BME280;71818;52.352;10.912;2023-08-17T09:57:12;100667.00;;;15.47;98.10
82222;BME280;71818;52.352;10.912;2023-08-17T09:59:38;100666.09;;;15.46;97.70
82222;BME280;71818;52.352;10.912;2023-08-17T10:02:07;100666.25;;;15.35;97.75
82222;BME280;71818;52.352;10.912;2023-08-17T10:04:37;100668.22;;;15.43;98.09
82222;BME280;71818;52.352;10.912;2023-08-17T10:07:03;100666.53;;;15.32;97.97
82222;BME280;71818;52.352;10.912;2023-08-17T10:09:37;100660.97;;;15.24;98.01
82222;BME280;71818;52.352;10.912;2023-08-17T10:12:09;100653.84;;;15.34;98.15
82222;BME280;71818;52.352;10.912;2023-08-17T10:14:39;100664.69;;;15.33;98.47
82222;BME280;71818;52.352;10.912;2023-08-17T10:17:12;100658.03;;;15.27;98.34
82222;BME280;71818;52.352;10.912;2023-08-17T10:19:45;100655.53;;;15.35;98.29
82222;BME280;71818;52.352;10.912;2023-08-17T10:22:19;100655.81;;;15.42;98.01
82222;BME280;71818;52.352;10.912;2023-08-17T10:24:45;100658.63;;;15.40;98.01
82222;BME280;71818;52.352;10.912;2023-08-17T10:27:11;100665.59;;;15.52;97.95
82222;BME280;71818;52.352;10.912;2023-08-17T10:29:39;100665.66;;;15.62;97.80
82222;BME280;71818;52.352;10.912;2023-08-17T10:32:05;100670.81;;;15.54;97.79
82222;BME280;71818;52.352;10.912;2023-08-17T10:34:37;100668.13;;;15.54;97.58
82222;BME280;71818;52.352;10.912;2023-08-17T10:37:04;100666.00;;;15.58;97.69
82222;BME280;71818;52.352;10.912;2023-08-17T10:39:30;100663.81;;;15.63;97.35
82222;BME280;71818;52.352;10.912;2023-08-17T10:41:57;100656.38;;;15.86;97.24
82222;BME280;71818;52.352;10.912;2023-08-17T10:44:47;100664.38;;;15.76;96.96
82222;BME280;71818;52.352;10.912;2023-08-17T10:49:43;100667.13;;;15.95;97.35
82222;BME280;71818;52.352;10.912;2023-08-17T10:52:09;100668.81;;;15.96;97.06
82222;BME280;71818;52.352;10.912;2023-08-17T10:54:39;100656.38;;;16.05;97.10
82222;BME280;71818;52.352;10.912;2023-08-17T10:57:24;100669.66;;;15.97;97.00
82222;BME280;71818;52.352;10.912;2023-08-17T11:00:13;100666.53;;;16.01;96.98
82222;BME280;71818;52.352;10.912;2023-08-17T11:02:39;100665.41;;;16.23;97.02
82222;BME280;71818;52.352;10.912;2023-08-17T11:05:04;100651.59;;;16.37;96.41
82222;BME280;71818;52.352;10.912;2023-08-17T11:07:40;100657.25;;;16.25;96.40
82222;BME280;71818;52.352;10.912;2023-08-17T11:10:31;100652.31;;;16.20;96.68
82222;BME280;71818;52.352;10.912;2023-08-17T11:12:59;100645.69;;;16.24;97.05
82222;BME280;71818;52.352;10.912;2023-08-17T11:15:39;100656.13;;;16.18;96.96
82222;BME280;71818;52.352;10.912;2023-08-17T11:18:07;100651.31;;;16.21;97.19
82222;BME280;71818;52.352;10.912;2023-08-17T11:20:35;100652.03;;;16.13;97.37
82222;BME280;71818;52.352;10.912;2023-08-17T11:23:01;100647.38;;;16.06;98.07
82222;BME280;71818;52.352;10.912;2023-08-17T11:25:27;100651.34;;;16.11;98.02
82222;BME280;71818;52.352;10.912;2023-08-17T11:27:53;100651.88;;;16.15;98.58
82222;BME280;71818;52.352;10.912;2023-08-17T11:30:21;100653.31;;;16.09;98.81
82222;BME280;71818;52.352;10.912;2023-08-17T11:32:51;100652.72;;;16.16;98.97
82222;BME280;71818;52.352;10.912;2023-08-17T11:35:17;100639.34;;;16.16;98.78
82222;BME280;71818;52.352;10.912;2023-08-17T11:37:43;100644.56;;;16.17;98.92
82222;BME280;71818;52.352;10.912;2023-08-17T11:40:13;100643.97;;;16.23;99.31
82222;BME280;71818;52.352;10.912;2023-08-17T11:42:38;100653.28;;;16.19;99.08
82222;BME280;71818;52.352;10.912;2023-08-17T11:45:05;100645.41;;;16.18;99.26
82222;BME280;71818;52.352;10.912;2023-08-17T11:47:30;100649.78;;;16.28;99.54
82222;BME280;71818;52.352;10.912;2023-08-17T11:50:01;100650.06;;;16.25;99.72
82222;BME280;71818;52.352;10.912;2023-08-17T11:52:27;100657.53;;;16.31;99.47
82222;BME280;71818;52.352;10.912;2023-08-17T11:54:56;100653.44;;;16.27;99.71
82222;BME280;71818;52.352;10.912;2023-08-17T11:57:21;100655.28;;;16.27;99.66
82222;BME280;71818;52.352;10.912;2023-08-17T11:59:47;100654.16;;;16.39;99.73
82222;BME280;71818;52.352;10.912;2023-08-17T12:02:12;100654.41;;;16.46;99.28
82222;BME280;71818;52.352;10.912;2023-08-17T12:04:38;100656.25;;;16.45;98.97
82222;BME280;71818;52.352;10.912;2023-08-17T12:07:03;100651.13;;;16.52;99.38
82222;BME280;71818;52.352;10.912;2023-08-17T12:09:32;100648.19;;;16.55;99.23
82222;BME280;71818;52.352;10.912;2023-08-17T12:11:58;100649.75;;;16.57;99.21
82222;BME280;71818;52.352;10.912;2023-08-17T12:14:26;100642.81;;;16.74;99.19
82222;BME280;71818;52.352;10.912;2023-08-17T12:16:52;100644.94;;;16.70;98.82
82222;BME280;71818;52.352;10.912;2023-08-17T12:19:19;100648.44;;;16.81;98.46
82222;BME280;71818;52.352;10.912;2023-08-17T12:21:46;100645.97;;;16.97;98.28
82222;BME280;71818;52.352;10.912;2023-08-17T12:24:13;100649.47;;;17.07;98.09
82222;BME280;71818;52.352;10.912;2023-08-17T12:26:46;100647.63;;;17.17;97.63
82222;BME280;71818;52.352;10.912;2023-08-17T12:29:12;100649.09;;;17.29;96.63
82222;BME280;71818;52.352;10.912;2023-08-17T12:31:38;100642.16;;;17.37;96.47
82222;BME280;71818;52.352;10.912;2023-08-17T12:34:04;100642.16;;;17.37;96.35
82222;BME280;71818;52.352;10.912;2023-08-17T12:36:32;100645.03;;;17.25;95.86
82222;BME280;71818;52.352;10.912;2023-08-17T12:38:58;100646.91;;;17.15;96.07
82222;BME280;71818;52.352;10.912;2023-08-17T12:41:24;100640.34;;;17.27;95.96
82222;BME280;71818;52.352;10.912;2023-08-17T12:43:49;100642.44;;;17.33;95.64
82222;BME280;71818;52.352;10.912;2023-08-17T12:46:14;100643.03;;;17.27;95.39
82222;BME280;71818;52.352;10.912;2023-08-17T12:48:40;100631.09;;;17.40;95.94
82222;BME280;71818;52.352;10.912;2023-08-17T12:51:05;100634.25;;;17.35;95.57
82222;BME280;71818;52.352;10.912;2023-08-17T12:53:31;100637.34;;;17.30;95.61